Daffan, Texas
Current Conditions -  °F | °C
As of 11:15 AM on Thursday 27 Nov 2014 (Local Time) from KEDC Reporting Station
Clear Clear  
Wind Chill: 13°   Ceiling: Unl
Heat Index: 13°   Visibility: 10mi
Dew Point: -2°   Wind: 9mph
Humidity: 36%   Direction: 60°ENE
Pressure: 30.53"   Gusts: NA
Location:  30.352°N, 97.5205°W
Report Text: KEDC 271715Z AUTO 06008KT 10SM CLR 13/M02 A3053 RMK AO2
Loading
Personal Weather Stations






























Interactive Weather Map New forecast layout! Learn more

10-Day Weather Forecast

Advertisements
Track Severe Weather on mobile